Terminal Aerodrome Forecast
Issued by NWS

Home | Current Version | Previous Version | Text Only | Print | Product List | Glossary Off
Versions: 1 2 3 4 5 6 7 8 9 10 11 12 13 14 15 16 17 18 19

000
FTUS42 KMHX 261121
TAFOAJ
TAF
KOAJ 261121Z 2612/2712 16009G17KT P6SM VCSH SCT025 BKN050
     FM261400 19013G23KT 5SM -SHRA SCT015 BKN030
     FM261800 21014G24KT P6SM BKN050
     FM270000 18008KT P6SM OVC100
     FM270600 20007KT 5SM -RA BR OVC010
      AMD LTD TO CLD VIS AND WIND=

USA.gov is the U.S. government's official web portal to all federal, state and local government web resources and services.